sensor_id;sensor_type;location;lat;lon;timestamp;temperature;humidity
13806;DHT22;6974;53.606;9.872;2023-04-24T00:01:59;14.60;99.90
13806;DHT22;6974;53.606;9.872;2023-04-24T00:04:27;14.60;99.90
13806;DHT22;6974;53.606;9.872;2023-04-24T00:06:54;14.60;99.90
13806;DHT22;6974;53.606;9.872;2023-04-24T00:09:22;14.50;99.90
13806;DHT22;6974;53.606;9.872;2023-04-24T00:11:49;14.50;99.90
13806;DHT22;6974;53.606;9.872;2023-04-24T00:14:16;14.50;99.90
13806;DHT22;6974;53.606;9.872;2023-04-24T00:16:43;14.50;99.90
13806;DHT22;6974;53.606;9.872;2023-04-24T00:19:10;14.50;99.90
13806;DHT22;6974;53.606;9.872;2023-04-24T00:21:39;14.40;99.90
13806;DHT22;6974;53.606;9.872;2023-04-24T00:24:07;14.40;99.90
13806;DHT22;6974;53.606;9.872;2023-04-24T00:26:35;14.40;99.90
13806;DHT22;6974;53.606;9.872;2023-04-24T00:29:02;14.40;99.90
13806;DHT22;6974;53.606;9.872;2023-04-24T00:31:28;14.40;99.90
13806;DHT22;6974;53.606;9.872;2023-04-24T00:33:55;14.40;99.90
13806;DHT22;6974;53.606;9.872;2023-04-24T00:36:22;14.40;99.90
13806;DHT22;6974;53.606;9.872;2023-04-24T00:38:50;14.30;99.90
13806;DHT22;6974;53.606;9.872;2023-04-24T00:41:17;14.30;99.90
13806;DHT22;6974;53.606;9.872;2023-04-24T00:43:44;14.40;99.90
13806;DHT22;6974;53.606;9.872;2023-04-24T00:46:11;14.30;99.90
13806;DHT22;6974;53.606;9.872;2023-04-24T00:48:39;14.40;99.90
13806;DHT22;6974;53.606;9.872;2023-04-24T00:51:06;14.40;99.90
13806;DHT22;6974;53.606;9.872;2023-04-24T00:53:33;14.40;99.90
13806;DHT22;6974;53.606;9.872;2023-04-24T00:56:01;14.40;99.90
13806;DHT22;6974;53.606;9.872;2023-04-24T00:58:28;14.30;99.90
13806;DHT22;6974;53.606;9.872;2023-04-24T01:00:56;14.30;99.90
13806;DHT22;6974;53.606;9.872;2023-04-24T01:03:26;14.30;99.90
13806;DHT22;6974;53.606;9.872;2023-04-24T01:05:55;14.30;99.90
13806;DHT22;6974;53.606;9.872;2023-04-24T01:08:24;14.20;99.90
13806;DHT22;6974;53.606;9.872;2023-04-24T01:10:51;14.20;99.90
13806;DHT22;6974;53.606;9.872;2023-04-24T01:13:20;14.20;99.90
13806;DHT22;6974;53.606;9.872;2023-04-24T01:15:47;14.10;99.90
13806;DHT22;6974;53.606;9.872;2023-04-24T01:18:15;14.20;99.90
13806;DHT22;6974;53.606;9.872;2023-04-24T01:20:42;14.10;99.90
13806;DHT22;6974;53.606;9.872;2023-04-24T01:23:12;14.10;99.90
13806;DHT22;6974;53.606;9.872;2023-04-24T01:25:39;14.00;99.90
13806;DHT22;6974;53.606;9.872;2023-04-24T01:28:06;14.00;99.90
13806;DHT22;6974;53.606;9.872;2023-04-24T01:30:33;14.00;99.90
13806;DHT22;6974;53.606;9.872;2023-04-24T01:33:00;13.90;99.90
13806;DHT22;6974;53.606;9.872;2023-04-24T01:35:28;13.90;99.90
13806;DHT22;6974;53.606;9.872;2023-04-24T01:37:55;13.90;99.90
13806;DHT22;6974;53.606;9.872;2023-04-24T01:40:23;13.90;99.90
13806;DHT22;6974;53.606;9.872;2023-04-24T01:42:50;13.90;99.90
13806;DHT22;6974;53.606;9.872;2023-04-24T01:45:17;13.90;99.90
13806;DHT22;6974;53.606;9.872;2023-04-24T01:47:45;14.00;99.90
13806;DHT22;6974;53.606;9.872;2023-04-24T01:50:14;13.90;99.90
13806;DHT22;6974;53.606;9.872;2023-04-24T01:52:41;13.90;99.90
13806;DHT22;6974;53.606;9.872;2023-04-24T01:55:09;13.90;99.90
13806;DHT22;6974;53.606;9.872;2023-04-24T01:57:38;13.90;99.90
13806;DHT22;6974;53.606;9.872;2023-04-24T02:00:06;13.90;99.90
13806;DHT22;6974;53.606;9.872;2023-04-24T02:02:33;13.80;99.90
13806;DHT22;6974;53.606;9.872;2023-04-24T02:05:00;13.80;99.90
13806;DHT22;6974;53.606;9.872;2023-04-24T02:07:28;13.70;99.90
13806;DHT22;6974;53.606;9.872;2023-04-24T02:09:55;13.70;99.90
13806;DHT22;6974;53.606;9.872;2023-04-24T02:12:22;13.70;99.90
13806;DHT22;6974;53.606;9.872;2023-04-24T02:14:50;13.60;99.90
13806;DHT22;6974;53.606;9.872;2023-04-24T02:17:17;13.70;99.90
13806;DHT22;6974;53.606;9.872;2023-04-24T02:19:44;13.60;99.90
13806;DHT22;6974;53.606;9.872;2023-04-24T02:22:11;13.60;99.90
13806;DHT22;6974;53.606;9.872;2023-04-24T02:24:38;13.60;99.90
13806;DHT22;6974;53.606;9.872;2023-04-24T02:27:05;13.60;99.90
13806;DHT22;6974;53.606;9.872;2023-04-24T02:29:32;13.60;99.90
13806;DHT22;6974;53.606;9.872;2023-04-24T02:32:00;13.60;99.90
13806;DHT22;6974;53.606;9.872;2023-04-24T02:34:27;13.60;99.90
13806;DHT22;6974;53.606;9.872;2023-04-24T02:36:54;13.50;99.90
13806;DHT22;6974;53.606;9.872;2023-04-24T02:39:21;13.50;99.90
13806;DHT22;6974;53.606;9.872;2023-04-24T02:41:48;13.50;99.90
13806;DHT22;6974;53.606;9.872;2023-04-24T02:44:15;13.50;99.90
13806;DHT22;6974;53.606;9.872;2023-04-24T02:46:42;13.50;99.90
13806;DHT22;6974;53.606;9.872;2023-04-24T02:49:11;13.50;99.90
13806;DHT22;6974;53.606;9.872;2023-04-24T02:51:38;13.50;99.90
13806;DHT22;6974;53.606;9.872;2023-04-24T02:54:07;13.40;99.90
13806;DHT22;6974;53.606;9.872;2023-04-24T02:56:35;13.40;99.90
13806;DHT22;6974;53.606;9.872;2023-04-24T02:59:02;13.40;99.90
13806;DHT22;6974;53.606;9.872;2023-04-24T03:01:29;13.40;99.90
13806;DHT22;6974;53.606;9.872;2023-04-24T03:03:56;13.40;99.90
13806;DHT22;6974;53.606;9.872;2023-04-24T03:06:24;13.30;99.90
13806;DHT22;6974;53.606;9.872;2023-04-24T03:08:52;13.30;99.90
13806;DHT22;6974;53.606;9.872;2023-04-24T03:11:19;13.30;99.90
13806;DHT22;6974;53.606;9.872;2023-04-24T03:13:46;13.30;99.90
13806;DHT22;6974;53.606;9.872;2023-04-24T03:16:12;13.30;99.90
13806;DHT22;6974;53.606;9.872;2023-04-24T03:18:39;13.20;99.90
13806;DHT22;6974;53.606;9.872;2023-04-24T03:21:06;13.20;99.90
13806;DHT22;6974;53.606;9.872;2023-04-24T03:23:35;13.20;99.90
13806;DHT22;6974;53.606;9.872;2023-04-24T03:26:02;13.20;99.90
13806;DHT22;6974;53.606;9.872;2023-04-24T03:28:28;13.10;99.90
13806;DHT22;6974;53.606;9.872;2023-04-24T03:30:55;13.20;99.90
13806;DHT22;6974;53.606;9.872;2023-04-24T03:33:22;13.10;99.90
13806;DHT22;6974;53.606;9.872;2023-04-24T03:35:49;13.10;99.90
13806;DHT22;6974;53.606;9.872;2023-04-24T03:38:16;13.10;99.90
13806;DHT22;6974;53.606;9.872;2023-04-24T03:40:44;13.10;99.90
13806;DHT22;6974;53.606;9.872;2023-04-24T03:43:11;13.00;99.90
13806;DHT22;6974;53.606;9.872;2023-04-24T03:45:38;13.00;99.90
13806;DHT22;6974;53.606;9.872;2023-04-24T03:48:05;13.00;99.90
13806;DHT22;6974;53.606;9.872;2023-04-24T03:50:31;13.00;99.90
13806;DHT22;6974;53.606;9.872;2023-04-24T03:52:58;13.00;99.90
13806;DHT22;6974;53.606;9.872;2023-04-24T03:55:25;13.00;99.90
13806;DHT22;6974;53.606;9.872;2023-04-24T03:57:54;12.90;99.90
13806;DHT22;6974;53.606;9.872;2023-04-24T04:00:21;12.90;99.90
13806;DHT22;6974;53.606;9.872;2023-04-24T04:02:47;12.90;99.90
13806;DHT22;6974;53.606;9.872;2023-04-24T04:05:14;12.80;99.90
13806;DHT22;6974;53.606;9.872;2023-04-24T04:07:41;12.80;99.90
13806;DHT22;6974;53.606;9.872;2023-04-24T04:10:08;12.70;99.90
13806;DHT22;6974;53.606;9.872;2023-04-24T04:12:35;12.80;99.90
13806;DHT22;6974;53.606;9.872;2023-04-24T04:15:04;12.80;99.90
13806;DHT22;6974;53.606;9.872;2023-04-24T04:17:31;12.80;99.90
13806;DHT22;6974;53.606;9.872;2023-04-24T04:19:58;12.80;99.90
13806;DHT22;6974;53.606;9.872;2023-04-24T04:22:25;12.80;99.90
13806;DHT22;6974;53.606;9.872;2023-04-24T04:24:52;12.70;99.90
13806;DHT22;6974;53.606;9.872;2023-04-24T04:27:19;12.70;99.90
13806;DHT22;6974;53.606;9.872;2023-04-24T04:29:46;12.70;99.90
13806;DHT22;6974;53.606;9.872;2023-04-24T04:32:15;12.70;99.90
13806;DHT22;6974;53.606;9.872;2023-04-24T04:34:42;12.70;99.90
13806;DHT22;6974;53.606;9.872;2023-04-24T04:37:10;12.70;99.90
13806;DHT22;6974;53.606;9.872;2023-04-24T04:39:38;12.70;99.90
13806;DHT22;6974;53.606;9.872;2023-04-24T04:42:04;12.70;99.90
13806;DHT22;6974;53.606;9.872;2023-04-24T04:44:32;12.70;99.90
13806;DHT22;6974;53.606;9.872;2023-04-24T04:47:01;12.70;99.90
13806;DHT22;6974;53.606;9.872;2023-04-24T04:49:32;12.70;99.90
13806;DHT22;6974;53.606;9.872;2023-04-24T04:51:59;12.80;99.90
13806;DHT22;6974;53.606;9.872;2023-04-24T04:54:26;12.80;99.90
13806;DHT22;6974;53.606;9.872;2023-04-24T04:56:53;12.80;99.90
13806;DHT22;6974;53.606;9.872;2023-04-24T04:59:20;12.80;99.90
13806;DHT22;6974;53.606;9.872;2023-04-24T05:01:47;12.90;99.90
13806;DHT22;6974;53.606;9.872;2023-04-24T05:04:13;12.80;99.90
13806;DHT22;6974;53.606;9.872;2023-04-24T05:06:42;12.90;99.90
13806;DHT22;6974;53.606;9.872;2023-04-24T05:09:09;12.90;99.90
13806;DHT22;6974;53.606;9.872;2023-04-24T05:11:35;12.90;99.90
13806;DHT22;6974;53.606;9.872;2023-04-24T05:14:02;12.90;99.90
13806;DHT22;6974;53.606;9.872;2023-04-24T05:16:29;12.90;99.90
13806;DHT22;6974;53.606;9.872;2023-04-24T05:18:56;12.80;99.90
13806;DHT22;6974;53.606;9.872;2023-04-24T05:21:23;12.90;99.90
13806;DHT22;6974;53.606;9.872;2023-04-24T05:23:52;12.90;99.90
13806;DHT22;6974;53.606;9.872;2023-04-24T05:26:18;12.90;99.90
13806;DHT22;6974;53.606;9.872;2023-04-24T05:28:45;13.00;99.90
13806;DHT22;6974;53.606;9.872;2023-04-24T05:31:13;13.00;99.90
13806;DHT22;6974;53.606;9.872;2023-04-24T05:33:40;13.00;99.90
13806;DHT22;6974;53.606;9.872;2023-04-24T05:36:07;13.00;99.90
13806;DHT22;6974;53.606;9.872;2023-04-24T05:38:34;13.10;99.90
13806;DHT22;6974;53.606;9.872;2023-04-24T05:41:03;13.10;99.90
13806;DHT22;6974;53.606;9.872;2023-04-24T05:43:30;13.10;99.90
13806;DHT22;6974;53.606;9.872;2023-04-24T05:45:57;13.20;99.90
13806;DHT22;6974;53.606;9.872;2023-04-24T05:48:24;13.20;99.90
13806;DHT22;6974;53.606;9.872;2023-04-24T05:50:52;13.20;99.90
13806;DHT22;6974;53.606;9.872;2023-04-24T05:53:19;13.20;99.90
13806;DHT22;6974;53.606;9.872;2023-04-24T05:55:47;13.30;99.90
13806;DHT22;6974;53.606;9.872;2023-04-24T05:58:16;13.30;99.90
13806;DHT22;6974;53.606;9.872;2023-04-24T06:00:43;13.30;99.90
13806;DHT22;6974;53.606;9.872;2023-04-24T06:03:11;13.30;99.90
13806;DHT22;6974;53.606;9.872;2023-04-24T06:05:38;13.30;99.90
13806;DHT22;6974;53.606;9.872;2023-04-24T06:08:09;13.30;99.90
13806;DHT22;6974;53.606;9.872;2023-04-24T06:10:37;13.30;99.90
13806;DHT22;6974;53.606;9.872;2023-04-24T06:13:04;13.40;99.90
13806;DHT22;6974;53.606;9.872;2023-04-24T06:15:33;13.40;99.90
13806;DHT22;6974;53.606;9.872;2023-04-24T06:18:01;13.30;99.90
13806;DHT22;6974;53.606;9.872;2023-04-24T06:20:28;13.40;99.90
13806;DHT22;6974;53.606;9.872;2023-04-24T06:22:55;13.40;99.90
13806;DHT22;6974;53.606;9.872;2023-04-24T06:25:24;13.40;99.90
13806;DHT22;6974;53.606;9.872;2023-04-24T06:27:51;13.40;99.90
13806;DHT22;6974;53.606;9.872;2023-04-24T06:30:18;13.50;99.90
13806;DHT22;6974;53.606;9.872;2023-04-24T06:32:47;13.50;99.90
13806;DHT22;6974;53.606;9.872;2023-04-24T06:35:14;13.50;99.90
13806;DHT22;6974;53.606;9.872;2023-04-24T06:37:42;13.60;99.90
13806;DHT22;6974;53.606;9.872;2023-04-24T06:40:10;13.60;99.90
13806;DHT22;6974;53.606;9.872;2023-04-24T06:42:38;13.70;99.90
13806;DHT22;6974;53.606;9.872;2023-04-24T06:45:06;13.70;99.90
13806;DHT22;6974;53.606;9.872;2023-04-24T06:47:33;13.80;99.90
13806;DHT22;6974;53.606;9.872;2023-04-24T06:50:02;13.80;99.90
13806;DHT22;6974;53.606;9.872;2023-04-24T06:52:29;14.00;99.90
13806;DHT22;6974;53.606;9.872;2023-04-24T06:55:00;14.00;99.90
13806;DHT22;6974;53.606;9.872;2023-04-24T06:57:28;14.00;99.90
13806;DHT22;6974;53.606;9.872;2023-04-24T06:59:55;14.10;99.90
13806;DHT22;6974;53.606;9.872;2023-04-24T07:02:22;14.10;99.90
13806;DHT22;6974;53.606;9.872;2023-04-24T07:04:49;14.10;99.90
13806;DHT22;6974;53.606;9.872;2023-04-24T07:07:18;14.10;99.90
13806;DHT22;6974;53.606;9.872;2023-04-24T07:09:46;14.10;99.90
13806;DHT22;6974;53.606;9.872;2023-04-24T07:12:14;14.20;99.90
13806;DHT22;6974;53.606;9.872;2023-04-24T07:14:42;14.20;99.90
13806;DHT22;6974;53.606;9.872;2023-04-24T07:17:09;14.30;99.90
13806;DHT22;6974;53.606;9.872;2023-04-24T07:19:38;14.30;99.90
13806;DHT22;6974;53.606;9.872;2023-04-24T07:22:06;14.30;99.90
13806;DHT22;6974;53.606;9.872;2023-04-24T07:24:38;14.20;99.90
13806;DHT22;6974;53.606;9.872;2023-04-24T07:27:06;14.20;99.90
13806;DHT22;6974;53.606;9.872;2023-04-24T07:29:33;14.10;99.90
13806;DHT22;6974;53.606;9.872;2023-04-24T07:32:03;14.10;99.90
13806;DHT22;6974;53.606;9.872;2023-04-24T07:34:30;14.10;99.90
13806;DHT22;6974;53.606;9.872;2023-04-24T07:36:57;14.10;99.90
13806;DHT22;6974;53.606;9.872;2023-04-24T07:39:25;14.10;99.90
13806;DHT22;6974;53.606;9.872;2023-04-24T07:41:56;14.20;99.90
13806;DHT22;6974;53.606;9.872;2023-04-24T07:44:24;14.20;99.90
13806;DHT22;6974;53.606;9.872;2023-04-24T07:46:51;14.30;99.90
13806;DHT22;6974;53.606;9.872;2023-04-24T07:49:18;14.20;99.90
13806;DHT22;6974;53.606;9.872;2023-04-24T07:51:45;14.20;99.90
13806;DHT22;6974;53.606;9.872;2023-04-24T07:54:13;14.20;99.90
13806;DHT22;6974;53.606;9.872;2023-04-24T07:56:41;14.20;99.90
13806;DHT22;6974;53.606;9.872;2023-04-24T07:59:10;14.20;99.90
13806;DHT22;6974;53.606;9.872;2023-04-24T08:01:37;14.20;99.90
13806;DHT22;6974;53.606;9.872;2023-04-24T08:04:05;14.20;99.90
13806;DHT22;6974;53.606;9.872;2023-04-24T08:06:32;14.20;99.90
13806;DHT22;6974;53.606;9.872;2023-04-24T08:09:00;14.20;99.90
13806;DHT22;6974;53.606;9.872;2023-04-24T08:11:27;14.30;99.90
13806;DHT22;6974;53.606;9.872;2023-04-24T08:13:55;14.30;99.90
13806;DHT22;6974;53.606;9.872;2023-04-24T08:16:24;14.30;99.90
13806;DHT22;6974;53.606;9.872;2023-04-24T08:18:51;14.30;99.90
13806;DHT22;6974;53.606;9.872;2023-04-24T08:21:18;14.40;99.90
13806;DHT22;6974;53.606;9.872;2023-04-24T08:23:46;14.40;99.90
13806;DHT22;6974;53.606;9.872;2023-04-24T08:26:13;14.50;99.90
13806;DHT22;6974;53.606;9.872;2023-04-24T08:28:41;14.60;99.90
13806;DHT22;6974;53.606;9.872;2023-04-24T08:31:09;14.50;99.90
13806;DHT22;6974;53.606;9.872;2023-04-24T08:33:37;14.50;99.90
13806;DHT22;6974;53.606;9.872;2023-04-24T08:36:06;14.40;99.90
13806;DHT22;6974;53.606;9.872;2023-04-24T08:38:34;14.40;99.90
13806;DHT22;6974;53.606;9.872;2023-04-24T08:41:01;14.40;99.90
13806;DHT22;6974;53.606;9.872;2023-04-24T08:43:30;14.30;99.90
13806;DHT22;6974;53.606;9.872;2023-04-24T08:45:59;14.30;99.90
13806;DHT22;6974;53.606;9.872;2023-04-24T08:48:30;14.30;99.90
13806;DHT22;6974;53.606;9.872;2023-04-24T08:51:02;14.20;99.90
13806;DHT22;6974;53.606;9.872;2023-04-24T08:53:32;14.20;99.90
13806;DHT22;6974;53.606;9.872;2023-04-24T08:56:01;14.20;99.90
13806;DHT22;6974;53.606;9.872;2023-04-24T08:58:28;14.20;99.90
13806;DHT22;6974;53.606;9.872;2023-04-24T09:00:57;14.30;99.90
13806;DHT22;6974;53.606;9.872;2023-04-24T09:03:27;14.40;99.90
13806;DHT22;6974;53.606;9.872;2023-04-24T09:05:55;14.30;99.90
13806;DHT22;6974;53.606;9.872;2023-04-24T09:08:26;14.30;99.90
13806;DHT22;6974;53.606;9.872;2023-04-24T09:10:54;14.30;99.90
13806;DHT22;6974;53.606;9.872;2023-04-24T09:13:24;14.40;99.90
13806;DHT22;6974;53.606;9.872;2023-04-24T09:15:52;14.40;99.90
13806;DHT22;6974;53.606;9.872;2023-04-24T09:18:19;14.40;99.90
13806;DHT22;6974;53.606;9.872;2023-04-24T09:21:00;14.40;99.90
13806;DHT22;6974;53.606;9.872;2023-04-24T09:23:31;14.40;99.90
13806;DHT22;6974;53.606;9.872;2023-04-24T09:26:00;14.40;99.90
13806;DHT22;6974;53.606;9.872;2023-04-24T09:28:29;14.30;99.90
13806;DHT22;6974;53.606;9.872;2023-04-24T09:31:07;14.30;99.90
13806;DHT22;6974;53.606;9.872;2023-04-24T09:33:35;14.30;99.90
13806;DHT22;6974;53.606;9.872;2023-04-24T09:36:02;14.30;99.90
13806;DHT22;6974;53.606;9.872;2023-04-24T09:38:38;14.50;99.90
13806;DHT22;6974;53.606;9.872;2023-04-24T09:41:07;14.50;99.90
13806;DHT22;6974;53.606;9.872;2023-04-24T09:43:34;14.50;99.90
13806;DHT22;6974;53.606;9.872;2023-04-24T09:46:05;14.50;99.90
13806;DHT22;6974;53.606;9.872;2023-04-24T09:48:34;14.40;99.90
13806;DHT22;6974;53.606;9.872;2023-04-24T09:51:03;14.40;99.90
13806;DHT22;6974;53.606;9.872;2023-04-24T09:53:32;14.40;99.90
13806;DHT22;6974;53.606;9.872;2023-04-24T09:56:07;14.40;99.90
13806;DHT22;6974;53.606;9.872;2023-04-24T09:58:35;14.50;99.90
13806;DHT22;6974;53.606;9.872;2023-04-24T10:01:03;14.50;99.90
13806;DHT22;6974;53.606;9.872;2023-04-24T10:03:32;14.50;99.90
13806;DHT22;6974;53.606;9.872;2023-04-24T10:06:00;14.40;99.90
13806;DHT22;6974;53.606;9.872;2023-04-24T10:08:33;14.20;99.90
13806;DHT22;6974;53.606;9.872;2023-04-24T10:11:03;14.20;99.90
13806;DHT22;6974;53.606;9.872;2023-04-24T10:13:32;14.10;99.90
13806;DHT22;6974;53.606;9.872;2023-04-24T10:16:00;14.10;99.90
13806;DHT22;6974;53.606;9.872;2023-04-24T10:18:28;14.20;99.90
13806;DHT22;6974;53.606;9.872;2023-04-24T10:20:56;14.20;99.90
13806;DHT22;6974;53.606;9.872;2023-04-24T10:23:25;14.20;99.90
13806;DHT22;6974;53.606;9.872;2023-04-24T10:25:52;14.30;99.90
13806;DHT22;6974;53.606;9.872;2023-04-24T10:28:22;14.30;99.90
13806;DHT22;6974;53.606;9.872;2023-04-24T10:30:51;14.40;99.90
13806;DHT22;6974;53.606;9.872;2023-04-24T10:33:22;14.40;99.90
13806;DHT22;6974;53.606;9.872;2023-04-24T10:35:50;14.40;99.90
13806;DHT22;6974;53.606;9.872;2023-04-24T10:38:21;14.50;99.90
13806;DHT22;6974;53.606;9.872;2023-04-24T10:40:50;14.40;99.90
13806;DHT22;6974;53.606;9.872;2023-04-24T10:43:19;14.50;99.90
13806;DHT22;6974;53.606;9.872;2023-04-24T10:46:03;14.60;99.90
13806;DHT22;6974;53.606;9.872;2023-04-24T10:48:31;14.70;99.90
13806;DHT22;6974;53.606;9.872;2023-04-24T10:50:58;14.80;99.90
13806;DHT22;6974;53.606;9.872;2023-04-24T10:53:28;14.80;99.90
13806;DHT22;6974;53.606;9.872;2023-04-24T10:55:58;14.90;99.90
13806;DHT22;6974;53.606;9.872;2023-04-24T10:58:36;15.00;99.90
13806;DHT22;6974;53.606;9.872;2023-04-24T11:01:05;15.00;99.90
13806;DHT22;6974;53.606;9.872;2023-04-24T11:03:34;14.90;99.90
13806;DHT22;6974;53.606;9.872;2023-04-24T11:06:02;14.90;99.90
13806;DHT22;6974;53.606;9.872;2023-04-24T11:08:32;14.80;99.90
13806;DHT22;6974;53.606;9.872;2023-04-24T11:11:08;14.80;99.90
13806;DHT22;6974;53.606;9.872;2023-04-24T11:14:01;14.80;99.90
13806;DHT22;6974;53.606;9.872;2023-04-24T11:16:31;14.70;99.90
13806;DHT22;6974;53.606;9.872;2023-04-24T11:19:05;14.70;99.90
13806;DHT22;6974;53.606;9.872;2023-04-24T11:21:42;14.70;99.90
13806;DHT22;6974;53.606;9.872;2023-04-24T11:24:26;14.70;99.90
13806;DHT22;6974;53.606;9.872;2023-04-24T11:26:55;14.60;99.90
13806;DHT22;6974;53.606;9.872;2023-04-24T11:29:38;14.50;99.90
13806;DHT22;6974;53.606;9.872;2023-04-24T11:32:16;14.50;99.90
13806;DHT22;6974;53.606;9.872;2023-04-24T11:34:46;14.50;99.90
13806;DHT22;6974;53.606;9.872;2023-04-24T11:37:13;14.60;99.90
13806;DHT22;6974;53.606;9.872;2023-04-24T11:39:40;14.60;99.90
13806;DHT22;6974;53.606;9.872;2023-04-24T11:42:07;14.50;99.90
13806;DHT22;6974;53.606;9.872;2023-04-24T11:44:35;14.50;99.90
13806;DHT22;6974;53.606;9.872;2023-04-24T11:47:03;14.50;99.90
13806;DHT22;6974;53.606;9.872;2023-04-24T11:49:31;14.50;99.90
13806;DHT22;6974;53.606;9.872;2023-04-24T11:51:58;14.60;99.90
13806;DHT22;6974;53.606;9.872;2023-04-24T11:54:26;14.70;99.90
13806;DHT22;6974;53.606;9.872;2023-04-24T11:56:52;14.70;99.90
13806;DHT22;6974;53.606;9.872;2023-04-24T11:59:19;14.70;99.90
13806;DHT22;6974;53.606;9.872;2023-04-24T12:01:47;14.70;99.90
13806;DHT22;6974;53.606;9.872;2023-04-24T12:04:15;14.70;99.90
13806;DHT22;6974;53.606;9.872;2023-04-24T12:07:02;14.70;99.90
13806;DHT22;6974;53.606;9.872;2023-04-24T12:09:29;14.70;99.90
13806;DHT22;6974;53.606;9.872;2023-04-24T12:12:06;14.70;99.90
13806;DHT22;6974;53.606;9.872;2023-04-24T12:14:41;14.70;99.90
13806;DHT22;6974;53.606;9.872;2023-04-24T12:17:08;14.70;99.90
13806;DHT22;6974;53.606;9.872;2023-04-24T12:19:35;14.70;99.90
13806;DHT22;6974;53.606;9.872;2023-04-24T12:22:04;14.70;99.90
13806;DHT22;6974;53.606;9.872;2023-04-24T12:24:32;14.70;99.90
13806;DHT22;6974;53.606;9.872;2023-04-24T12:26:58;14.70;99.90
13806;DHT22;6974;53.606;9.872;2023-04-24T12:29:27;14.70;99.90
13806;DHT22;6974;53.606;9.872;2023-04-24T12:31:54;14.60;99.90
13806;DHT22;6974;53.606;9.872;2023-04-24T12:34:22;14.50;99.90
13806;DHT22;6974;53.606;9.872;2023-04-24T12:36:49;14.50;99.90
13806;DHT22;6974;53.606;9.872;2023-04-24T12:39:17;14.50;99.90
13806;DHT22;6974;53.606;9.872;2023-04-24T12:41:55;14.50;99.90
13806;DHT22;6974;53.606;9.872;2023-04-24T12:44:29;14.40;99.90
13806;DHT22;6974;53.606;9.872;2023-04-24T12:46:57;14.30;99.90
13806;DHT22;6974;53.606;9.872;2023-04-24T12:49:24;14.20;99.90
13806;DHT22;6974;53.606;9.872;2023-04-24T12:51:51;14.20;99.90
13806;DHT22;6974;53.606;9.872;2023-04-24T12:54:19;14.20;99.90
13806;DHT22;6974;53.606;9.872;2023-04-24T12:56:46;14.20;99.90
13806;DHT22;6974;53.606;9.872;2023-04-24T12:59:13;14.10;99.90
13806;DHT22;6974;53.606;9.872;2023-04-24T13:01:40;14.10;99.90
13806;DHT22;6974;53.606;9.872;2023-04-24T13:04:07;14.10;99.90
13806;DHT22;6974;53.606;9.872;2023-04-24T13:06:34;14.10;99.90
13806;DHT22;6974;53.606;9.872;2023-04-24T13:09:01;14.10;99.90
13806;DHT22;6974;53.606;9.872;2023-04-24T13:11:30;14.00;99.90
13806;DHT22;6974;53.606;9.872;2023-04-24T13:13:57;14.00;99.90
13806;DHT22;6974;53.606;9.872;2023-04-24T13:16:23;13.90;99.90
13806;DHT22;6974;53.606;9.872;2023-04-24T13:18:50;13.80;99.90
13806;DHT22;6974;53.606;9.872;2023-04-24T13:21:17;13.80;99.90
13806;DHT22;6974;53.606;9.872;2023-04-24T13:23:44;13.80;99.90
13806;DHT22;6974;53.606;9.872;2023-04-24T13:26:11;13.80;99.90
13806;DHT22;6974;53.606;9.872;2023-04-24T13:28:39;13.80;99.90
13806;DHT22;6974;53.606;9.872;2023-04-24T13:31:06;13.90;99.90
13806;DHT22;6974;53.606;9.872;2023-04-24T13:33:32;13.90;99.90
13806;DHT22;6974;53.606;9.872;2023-04-24T13:35:59;13.80;99.90
13806;DHT22;6974;53.606;9.872;2023-04-24T13:38:26;13.90;99.90
13806;DHT22;6974;53.606;9.872;2023-04-24T13:40:53;13.90;99.90
13806;DHT22;6974;53.606;9.872;2023-04-24T13:43:20;13.90;99.90
13806;DHT22;6974;53.606;9.872;2023-04-24T13:45:48;14.00;99.90
13806;DHT22;6974;53.606;9.872;2023-04-24T13:48:15;14.00;99.90
13806;DHT22;6974;53.606;9.872;2023-04-24T13:50:42;14.00;99.90
13806;DHT22;6974;53.606;9.872;2023-04-24T13:53:09;14.00;99.90
13806;DHT22;6974;53.606;9.872;2023-04-24T13:55:36;13.90;99.90
13806;DHT22;6974;53.606;9.872;2023-04-24T13:58:04;14.00;99.90
13806;DHT22;6974;53.606;9.872;2023-04-24T14:00:32;14.10;99.90
13806;DHT22;6974;53.606;9.872;2023-04-24T14:03:00;14.10;99.90
13806;DHT22;6974;53.606;9.872;2023-04-24T14:05:27;14.20;99.90
13806;DHT22;6974;53.606;9.872;2023-04-24T14:07:53;14.20;99.90
13806;DHT22;6974;53.606;9.872;2023-04-24T14:10:20;14.20;99.90
13806;DHT22;6974;53.606;9.872;2023-04-24T14:12:47;14.20;99.90
13806;DHT22;6974;53.606;9.872;2023-04-24T14:15:14;14.20;99.90
13806;DHT22;6974;53.606;9.872;2023-04-24T14:17:42;14.10;99.90
13806;DHT22;6974;53.606;9.872;2023-04-24T14:20:11;14.10;99.90
13806;DHT22;6974;53.606;9.872;2023-04-24T14:22:38;14.00;99.90
13806;DHT22;6974;53.606;9.872;2023-04-24T14:25:06;13.90;99.90
13806;DHT22;6974;53.606;9.872;2023-04-24T14:27:33;13.80;99.90
13806;DHT22;6974;53.606;9.872;2023-04-24T14:30:01;13.80;99.90
13806;DHT22;6974;53.606;9.872;2023-04-24T14:32:28;13.70;99.90
13806;DHT22;6974;53.606;9.872;2023-04-24T14:34:55;13.60;99.90
13806;DHT22;6974;53.606;9.872;2023-04-24T14:37:23;13.50;99.90
13806;DHT22;6974;53.606;9.872;2023-04-24T14:39:50;13.50;99.90
13806;DHT22;6974;53.606;9.872;2023-04-24T14:42:17;13.40;99.90
13806;DHT22;6974;53.606;9.872;2023-04-24T14:44:44;13.30;99.90
13806;DHT22;6974;53.606;9.872;2023-04-24T14:47:11;13.20;99.90
13806;DHT22;6974;53.606;9.872;2023-04-24T14:49:38;13.20;99.90
13806;DHT22;6974;53.606;9.872;2023-04-24T14:52:04;13.20;99.90
13806;DHT22;6974;53.606;9.872;2023-04-24T14:54:33;13.10;99.90
13806;DHT22;6974;53.606;9.872;2023-04-24T14:56:59;13.10;99.90
13806;DHT22;6974;53.606;9.872;2023-04-24T14:59:27;13.00;99.90
13806;DHT22;6974;53.606;9.872;2023-04-24T15:01:54;13.00;99.90
13806;DHT22;6974;53.606;9.872;2023-04-24T15:04:23;13.00;99.90
13806;DHT22;6974;53.606;9.872;2023-04-24T15:06:51;13.00;99.90
13806;DHT22;6974;53.606;9.872;2023-04-24T15:09:19;13.00;99.90
13806;DHT22;6974;53.606;9.872;2023-04-24T15:11:47;12.90;99.90
13806;DHT22;6974;53.606;9.872;2023-04-24T15:14:14;12.80;99.90
13806;DHT22;6974;53.606;9.872;2023-04-24T15:16:41;12.70;99.90
13806;DHT22;6974;53.606;9.872;2023-04-24T15:19:08;12.60;99.90
13806;DHT22;6974;53.606;9.872;2023-04-24T15:21:36;12.50;99.90
13806;DHT22;6974;53.606;9.872;2023-04-24T15:24:04;12.30;99.90
13806;DHT22;6974;53.606;9.872;2023-04-24T15:26:31;12.10;99.90
13806;DHT22;6974;53.606;9.872;2023-04-24T15:28:59;12.00;99.90
13806;DHT22;6974;53.606;9.872;2023-04-24T15:31:26;12.00;99.90
13806;DHT22;6974;53.606;9.872;2023-04-24T15:33:53;12.00;99.90
13806;DHT22;6974;53.606;9.872;2023-04-24T15:36:20;11.90;99.90
13806;DHT22;6974;53.606;9.872;2023-04-24T15:38:47;11.70;99.90
13806;DHT22;6974;53.606;9.872;2023-04-24T15:41:14;11.70;99.90
13806;DHT22;6974;53.606;9.872;2023-04-24T15:43:41;11.60;99.90
13806;DHT22;6974;53.606;9.872;2023-04-24T15:46:09;11.60;99.90
13806;DHT22;6974;53.606;9.872;2023-04-24T15:48:36;11.60;99.90
13806;DHT22;6974;53.606;9.872;2023-04-24T15:51:06;11.70;99.90